If you wish to contribute or participate in the discussions about articles you are invited to join SKYbrary as a registered user

 Actions

Valence-Chabeuil Airport

From SKYbrary Wiki

LFLU
Airport
ICAO: LFLU – IATA: VAF
Summary
Name Valence-Chabeuil Airport
Region Europe
Territory France FR.gif
Location , Rhone-Alpes
Serving Valence
Elevation 160.02 m
525 ft
525 ft160.02 m
Type medium airport
Coordinates 44° 55' 17.74" N, 4° 58' 11.64" E
Runways
Designator Length Width Surface ROPS
1/19 2100 m6,889.764 ft
45 m147.638 ft
ASP /


METAR
Observation LFLU 251230Z AUTO 01006KT 310V050 CAVOK 31/13 Q1017
Station Valence-Chabeuil
Date/Time 25 August 2019 12:30:00
Wind direction 10°
Wind speed 06 kts
Lowest cloud amount clouds and visibility OK
Temperature 31°C
Dew point 13°C
Humidity 33%
QNH 1017 hPa
Weather condition n/a